sensor_id;sensor_type;location;lat;lon;timestamp;temperature;humidity
1594;DHT22;790;47.000;16.084;2023-10-13T00:02:12;13.70;99.90
1594;DHT22;790;47.000;16.084;2023-10-13T00:04:40;13.70;99.90
1594;DHT22;790;47.000;16.084;2023-10-13T00:07:08;13.70;99.90
1594;DHT22;790;47.000;16.084;2023-10-13T00:09:41;13.60;99.90
1594;DHT22;790;47.000;16.084;2023-10-13T00:12:10;13.60;99.90
1594;DHT22;790;47.000;16.084;2023-10-13T00:14:39;13.60;99.90
1594;DHT22;790;47.000;16.084;2023-10-13T00:17:08;13.60;99.90
1594;DHT22;790;47.000;16.084;2023-10-13T00:19:42;13.60;99.90
1594;DHT22;790;47.000;16.084;2023-10-13T00:22:12;13.50;99.90
1594;DHT22;790;47.000;16.084;2023-10-13T00:24:43;13.50;99.90
1594;DHT22;790;47.000;16.084;2023-10-13T00:27:12;13.50;99.90
1594;DHT22;790;47.000;16.084;2023-10-13T00:29:55;13.50;99.90
1594;DHT22;790;47.000;16.084;2023-10-13T00:32:42;13.50;99.90
1594;DHT22;790;47.000;16.084;2023-10-13T00:35:11;13.50;99.90
1594;DHT22;790;47.000;16.084;2023-10-13T00:37:51;13.40;99.90
1594;DHT22;790;47.000;16.084;2023-10-13T00:40:21;13.40;99.90
1594;DHT22;790;47.000;16.084;2023-10-13T00:43:02;13.30;99.90
1594;DHT22;790;47.000;16.084;2023-10-13T00:45:51;13.30;99.90
1594;DHT22;790;47.000;16.084;2023-10-13T00:48:21;13.40;99.90
1594;DHT22;790;47.000;16.084;2023-10-13T00:50:50;13.30;99.90
1594;DHT22;790;47.000;16.084;2023-10-13T00:53:17;13.20;99.90
1594;DHT22;790;47.000;16.084;2023-10-13T00:55:48;13.30;99.90
1594;DHT22;790;47.000;16.084;2023-10-13T00:58:16;13.20;99.90
1594;DHT22;790;47.000;16.084;2023-10-13T01:00:48;13.20;99.90
1594;DHT22;790;47.000;16.084;2023-10-13T01:03:23;13.20;99.90
1594;DHT22;790;47.000;16.084;2023-10-13T01:05:53;13.20;99.90
1594;DHT22;790;47.000;16.084;2023-10-13T01:08:32;13.20;99.90
1594;DHT22;790;47.000;16.084;2023-10-13T01:11:02;13.20;99.90
1594;DHT22;790;47.000;16.084;2023-10-13T01:13:32;13.30;99.90
1594;DHT22;790;47.000;16.084;2023-10-13T01:16:02;13.30;99.90
1594;DHT22;790;47.000;16.084;2023-10-13T01:18:33;13.30;99.90
1594;DHT22;790;47.000;16.084;2023-10-13T01:21:05;13.30;99.90
1594;DHT22;790;47.000;16.084;2023-10-13T01:23:34;13.30;99.90
1594;DHT22;790;47.000;16.084;2023-10-13T01:26:04;13.30;99.90
1594;DHT22;790;47.000;16.084;2023-10-13T01:28:32;13.20;99.90
1594;DHT22;790;47.000;16.084;2023-10-13T01:31:10;13.30;99.90
1594;DHT22;790;47.000;16.084;2023-10-13T01:33:43;13.30;99.90
1594;DHT22;790;47.000;16.084;2023-10-13T01:36:10;13.20;99.90
1594;DHT22;790;47.000;16.084;2023-10-13T01:38:39;13.10;99.90
1594;DHT22;790;47.000;16.084;2023-10-13T01:41:08;13.10;99.90
1594;DHT22;790;47.000;16.084;2023-10-13T01:43:35;13.10;99.90
1594;DHT22;790;47.000;16.084;2023-10-13T01:46:02;13.20;99.90
1594;DHT22;790;47.000;16.084;2023-10-13T01:48:29;13.10;99.90
1594;DHT22;790;47.000;16.084;2023-10-13T01:50:58;13.10;99.90
1594;DHT22;790;47.000;16.084;2023-10-13T01:53:28;13.20;99.90
1594;DHT22;790;47.000;16.084;2023-10-13T01:55:57;13.20;99.90
1594;DHT22;790;47.000;16.084;2023-10-13T01:58:24;13.30;99.90
1594;DHT22;790;47.000;16.084;2023-10-13T02:00:54;13.40;99.90
1594;DHT22;790;47.000;16.084;2023-10-13T02:03:22;13.40;99.90
1594;DHT22;790;47.000;16.084;2023-10-13T02:05:49;13.40;99.90
1594;DHT22;790;47.000;16.084;2023-10-13T02:08:19;13.40;99.90
1594;DHT22;790;47.000;16.084;2023-10-13T02:10:49;13.40;99.90
1594;DHT22;790;47.000;16.084;2023-10-13T02:13:18;13.40;99.90
1594;DHT22;790;47.000;16.084;2023-10-13T02:15:46;13.40;99.90
1594;DHT22;790;47.000;16.084;2023-10-13T02:18:15;13.40;99.90
1594;DHT22;790;47.000;16.084;2023-10-13T02:20:47;13.40;99.90
1594;DHT22;790;47.000;16.084;2023-10-13T02:23:22;13.40;99.90
1594;DHT22;790;47.000;16.084;2023-10-13T02:25:50;13.40;99.90
1594;DHT22;790;47.000;16.084;2023-10-13T02:28:27;13.40;99.90
1594;DHT22;790;47.000;16.084;2023-10-13T02:31:01;13.40;99.90
1594;DHT22;790;47.000;16.084;2023-10-13T02:33:29;13.40;99.90
1594;DHT22;790;47.000;16.084;2023-10-13T02:35:58;13.40;99.90
1594;DHT22;790;47.000;16.084;2023-10-13T02:38:25;13.40;99.90
1594;DHT22;790;47.000;16.084;2023-10-13T02:40:59;13.40;99.90
1594;DHT22;790;47.000;16.084;2023-10-13T02:43:34;13.30;99.90
1594;DHT22;790;47.000;16.084;2023-10-13T02:46:00;13.30;99.90
1594;DHT22;790;47.000;16.084;2023-10-13T02:48:28;13.30;99.90
1594;DHT22;790;47.000;16.084;2023-10-13T02:50:58;13.30;99.90
1594;DHT22;790;47.000;16.084;2023-10-13T02:53:28;13.30;99.90
1594;DHT22;790;47.000;16.084;2023-10-13T02:55:55;13.30;99.90
1594;DHT22;790;47.000;16.084;2023-10-13T02:58:29;13.30;99.90
1594;DHT22;790;47.000;16.084;2023-10-13T03:01:16;13.20;99.90
1594;DHT22;790;47.000;16.084;2023-10-13T03:03:47;13.10;99.90
1594;DHT22;790;47.000;16.084;2023-10-13T03:06:16;13.20;99.90
1594;DHT22;790;47.000;16.084;2023-10-13T03:08:47;13.10;99.90
1594;DHT22;790;47.000;16.084;2023-10-13T03:11:13;13.10;99.90
1594;DHT22;790;47.000;16.084;2023-10-13T03:13:48;13.00;99.90
1594;DHT22;790;47.000;16.084;2023-10-13T03:16:18;13.10;99.90
1594;DHT22;790;47.000;16.084;2023-10-13T03:18:47;13.10;99.90
1594;DHT22;790;47.000;16.084;2023-10-13T03:21:22;13.10;99.90
1594;DHT22;790;47.000;16.084;2023-10-13T03:23:58;13.10;99.90
1594;DHT22;790;47.000;16.084;2023-10-13T03:26:30;13.10;99.90
1594;DHT22;790;47.000;16.084;2023-10-13T03:29:03;13.00;99.90
1594;DHT22;790;47.000;16.084;2023-10-13T03:31:35;13.00;99.90
1594;DHT22;790;47.000;16.084;2023-10-13T03:34:05;13.00;99.90
1594;DHT22;790;47.000;16.084;2023-10-13T03:36:36;13.00;99.90
1594;DHT22;790;47.000;16.084;2023-10-13T03:39:21;13.00;99.90
1594;DHT22;790;47.000;16.084;2023-10-13T03:41:55;13.00;99.90
1594;DHT22;790;47.000;16.084;2023-10-13T03:44:22;13.00;99.90
1594;DHT22;790;47.000;16.084;2023-10-13T03:46:51;13.00;99.90
1594;DHT22;790;47.000;16.084;2023-10-13T03:49:20;13.00;99.90
1594;DHT22;790;47.000;16.084;2023-10-13T03:51:51;13.00;99.90
1594;DHT22;790;47.000;16.084;2023-10-13T03:54:20;13.00;99.90
1594;DHT22;790;47.000;16.084;2023-10-13T03:56:47;13.00;99.90
1594;DHT22;790;47.000;16.084;2023-10-13T03:59:18;13.00;99.90
1594;DHT22;790;47.000;16.084;2023-10-13T04:01:45;13.00;99.90
1594;DHT22;790;47.000;16.084;2023-10-13T04:04:16;13.00;99.90
1594;DHT22;790;47.000;16.084;2023-10-13T04:07:00;12.90;99.90
1594;DHT22;790;47.000;16.084;2023-10-13T04:09:52;12.90;99.90
1594;DHT22;790;47.000;16.084;2023-10-13T04:12:51;12.90;99.90
1594;DHT22;790;47.000;16.084;2023-10-13T04:15:36;12.90;99.90
1594;DHT22;790;47.000;16.084;2023-10-13T04:18:27;12.80;99.90
1594;DHT22;790;47.000;16.084;2023-10-13T04:21:17;12.90;99.90
1594;DHT22;790;47.000;16.084;2023-10-13T04:24:06;12.80;99.90
1594;DHT22;790;47.000;16.084;2023-10-13T04:26:50;12.80;99.90
1594;DHT22;790;47.000;16.084;2023-10-13T04:29:31;12.80;99.90
1594;DHT22;790;47.000;16.084;2023-10-13T04:32:16;12.70;99.90
1594;DHT22;790;47.000;16.084;2023-10-13T04:34:54;12.60;99.90
1594;DHT22;790;47.000;16.084;2023-10-13T04:37:25;12.60;99.90
1594;DHT22;790;47.000;16.084;2023-10-13T04:39:57;12.50;99.90
1594;DHT22;790;47.000;16.084;2023-10-13T04:42:26;12.50;99.90
1594;DHT22;790;47.000;16.084;2023-10-13T04:45:16;12.50;99.90
1594;DHT22;790;47.000;16.084;2023-10-13T04:48:05;12.60;99.90
1594;DHT22;790;47.000;16.084;2023-10-13T04:50:59;12.60;99.90
1594;DHT22;790;47.000;16.084;2023-10-13T04:53:46;12.60;99.90
1594;DHT22;790;47.000;16.084;2023-10-13T04:56:36;12.70;99.90
1594;DHT22;790;47.000;16.084;2023-10-13T04:59:21;12.70;99.90
1594;DHT22;790;47.000;16.084;2023-10-13T05:02:05;12.60;99.90
1594;DHT22;790;47.000;16.084;2023-10-13T05:04:50;12.70;99.90
1594;DHT22;790;47.000;16.084;2023-10-13T05:07:34;12.70;99.90
1594;DHT22;790;47.000;16.084;2023-10-13T05:10:21;12.70;99.90
1594;DHT22;790;47.000;16.084;2023-10-13T05:13:05;12.70;99.90
1594;DHT22;790;47.000;16.084;2023-10-13T05:15:51;12.80;99.90
1594;DHT22;790;47.000;16.084;2023-10-13T05:18:35;12.70;99.90
1594;DHT22;790;47.000;16.084;2023-10-13T05:21:31;12.80;99.90
1594;DHT22;790;47.000;16.084;2023-10-13T05:24:16;12.70;99.90
1594;DHT22;790;47.000;16.084;2023-10-13T05:27:02;12.70;99.90
1594;DHT22;790;47.000;16.084;2023-10-13T05:29:47;12.80;99.90
1594;DHT22;790;47.000;16.084;2023-10-13T05:32:32;12.80;99.90
1594;DHT22;790;47.000;16.084;2023-10-13T05:35:18;12.80;99.90
1594;DHT22;790;47.000;16.084;2023-10-13T05:38:03;12.80;99.90
1594;DHT22;790;47.000;16.084;2023-10-13T05:40:54;12.70;99.90
1594;DHT22;790;47.000;16.084;2023-10-13T05:43:39;12.80;99.90
1594;DHT22;790;47.000;16.084;2023-10-13T05:46:24;12.80;99.90
1594;DHT22;790;47.000;16.084;2023-10-13T05:49:06;12.80;99.90
1594;DHT22;790;47.000;16.084;2023-10-13T05:51:52;12.70;99.90
1594;DHT22;790;47.000;16.084;2023-10-13T05:54:24;12.80;99.90
1594;DHT22;790;47.000;16.084;2023-10-13T05:57:08;12.70;99.90
1594;DHT22;790;47.000;16.084;2023-10-13T06:00:07;12.70;99.90
1594;DHT22;790;47.000;16.084;2023-10-13T06:02:51;12.70;99.90
1594;DHT22;790;47.000;16.084;2023-10-13T06:05:36;12.80;99.90
1594;DHT22;790;47.000;16.084;2023-10-13T06:08:22;12.80;99.90
1594;DHT22;790;47.000;16.084;2023-10-13T06:11:06;12.90;99.90
1594;DHT22;790;47.000;16.084;2023-10-13T06:13:51;13.00;99.90
1594;DHT22;790;47.000;16.084;2023-10-13T06:16:38;13.00;99.90
1594;DHT22;790;47.000;16.084;2023-10-13T06:19:22;13.00;99.90
1594;DHT22;790;47.000;16.084;2023-10-13T06:22:07;13.20;99.90
1594;DHT22;790;47.000;16.084;2023-10-13T06:24:51;13.20;99.90
1594;DHT22;790;47.000;16.084;2023-10-13T06:27:36;13.20;99.90
1594;DHT22;790;47.000;16.084;2023-10-13T06:30:20;13.20;99.90
1594;DHT22;790;47.000;16.084;2023-10-13T06:32:48;13.30;99.90
1594;DHT22;790;47.000;16.084;2023-10-13T06:35:16;13.40;99.90
1594;DHT22;790;47.000;16.084;2023-10-13T06:37:49;13.50;99.90
1594;DHT22;790;47.000;16.084;2023-10-13T06:40:16;13.60;99.90
1594;DHT22;790;47.000;16.084;2023-10-13T06:42:51;13.60;99.90
1594;DHT22;790;47.000;16.084;2023-10-13T06:45:19;13.70;99.90
1594;DHT22;790;47.000;16.084;2023-10-13T06:47:49;13.70;99.90
1594;DHT22;790;47.000;16.084;2023-10-13T06:50:20;13.80;99.90
1594;DHT22;790;47.000;16.084;2023-10-13T06:52:50;13.90;99.90
1594;DHT22;790;47.000;16.084;2023-10-13T06:55:20;14.00;99.90
1594;DHT22;790;47.000;16.084;2023-10-13T06:57:52;14.00;99.90
1594;DHT22;790;47.000;16.084;2023-10-13T07:00:25;14.00;99.90
1594;DHT22;790;47.000;16.084;2023-10-13T07:02:55;14.00;99.90
1594;DHT22;790;47.000;16.084;2023-10-13T07:05:36;14.10;99.90
1594;DHT22;790;47.000;16.084;2023-10-13T07:08:05;14.30;99.90
1594;DHT22;790;47.000;16.084;2023-10-13T07:10:33;14.30;99.90
1594;DHT22;790;47.000;16.084;2023-10-13T07:13:11;14.30;99.90
1594;DHT22;790;47.000;16.084;2023-10-13T07:15:40;14.40;99.90
1594;DHT22;790;47.000;16.084;2023-10-13T07:18:13;14.40;99.90
1594;DHT22;790;47.000;16.084;2023-10-13T07:20:41;14.50;99.90
1594;DHT22;790;47.000;16.084;2023-10-13T07:23:11;14.60;99.90
1594;DHT22;790;47.000;16.084;2023-10-13T07:25:51;14.70;99.90
1594;DHT22;790;47.000;16.084;2023-10-13T07:28:20;14.70;99.90
1594;DHT22;790;47.000;16.084;2023-10-13T07:30:48;14.80;99.90
1594;DHT22;790;47.000;16.084;2023-10-13T07:33:41;14.90;99.90
1594;DHT22;790;47.000;16.084;2023-10-13T07:36:09;15.10;99.90
1594;DHT22;790;47.000;16.084;2023-10-13T07:38:46;15.10;99.90
1594;DHT22;790;47.000;16.084;2023-10-13T07:41:35;15.20;99.90
1594;DHT22;790;47.000;16.084;2023-10-13T07:44:03;15.30;99.90
1594;DHT22;790;47.000;16.084;2023-10-13T07:46:32;15.50;99.90
1594;DHT22;790;47.000;16.084;2023-10-13T07:49:05;15.50;99.90
1594;DHT22;790;47.000;16.084;2023-10-13T07:51:37;15.60;99.90
1594;DHT22;790;47.000;16.084;2023-10-13T07:54:10;15.70;99.90
1594;DHT22;790;47.000;16.084;2023-10-13T07:56:39;15.80;99.90
1594;DHT22;790;47.000;16.084;2023-10-13T07:59:06;15.90;99.90
1594;DHT22;790;47.000;16.084;2023-10-13T08:01:35;16.00;99.90
1594;DHT22;790;47.000;16.084;2023-10-13T08:04:04;16.10;99.90
1594;DHT22;790;47.000;16.084;2023-10-13T08:06:37;16.10;99.90
1594;DHT22;790;47.000;16.084;2023-10-13T08:09:06;16.20;99.90
1594;DHT22;790;47.000;16.084;2023-10-13T08:11:54;16.20;99.90
1594;DHT22;790;47.000;16.084;2023-10-13T08:14:21;16.30;99.90
1594;DHT22;790;47.000;16.084;2023-10-13T08:16:49;16.40;99.90
1594;DHT22;790;47.000;16.084;2023-10-13T08:19:27;16.40;99.90
1594;DHT22;790;47.000;16.084;2023-10-13T08:21:59;16.50;99.90
1594;DHT22;790;47.000;16.084;2023-10-13T08:24:49;16.60;99.90
1594;DHT22;790;47.000;16.084;2023-10-13T08:27:40;16.80;99.90
1594;DHT22;790;47.000;16.084;2023-10-13T08:30:31;16.90;99.90
1594;DHT22;790;47.000;16.084;2023-10-13T08:33:08;16.90;99.90
1594;DHT22;790;47.000;16.084;2023-10-13T08:35:45;17.00;99.90
1594;DHT22;790;47.000;16.084;2023-10-13T08:38:52;17.10;99.90
1594;DHT22;790;47.000;16.084;2023-10-13T08:41:21;17.20;99.90
1594;DHT22;790;47.000;16.084;2023-10-13T08:44:02;17.40;99.90
1594;DHT22;790;47.000;16.084;2023-10-13T08:46:35;17.60;99.90
1594;DHT22;790;47.000;16.084;2023-10-13T08:49:30;17.70;99.90
1594;DHT22;790;47.000;16.084;2023-10-13T08:52:09;17.70;99.90
1594;DHT22;790;47.000;16.084;2023-10-13T08:54:52;17.80;99.90
1594;DHT22;790;47.000;16.084;2023-10-13T08:57:39;17.90;99.90
1594;DHT22;790;47.000;16.084;2023-10-13T09:00:09;18.00;99.90
1594;DHT22;790;47.000;16.084;2023-10-13T09:03:15;18.20;99.90
1594;DHT22;790;47.000;16.084;2023-10-13T09:06:04;18.20;99.90
1594;DHT22;790;47.000;16.084;2023-10-13T09:08:34;18.30;99.90
1594;DHT22;790;47.000;16.084;2023-10-13T09:11:32;18.40;99.90
1594;DHT22;790;47.000;16.084;2023-10-13T09:14:14;18.60;99.90
1594;DHT22;790;47.000;16.084;2023-10-13T09:17:02;18.70;99.90
1594;DHT22;790;47.000;16.084;2023-10-13T09:19:51;18.80;99.90
1594;DHT22;790;47.000;16.084;2023-10-13T09:22:22;18.80;99.90
1594;DHT22;790;47.000;16.084;2023-10-13T09:24:57;18.80;99.90
1594;DHT22;790;47.000;16.084;2023-10-13T09:27:28;18.90;99.90
1594;DHT22;790;47.000;16.084;2023-10-13T09:29:56;18.90;99.90
1594;DHT22;790;47.000;16.084;2023-10-13T09:32:22;19.00;99.90
1594;DHT22;790;47.000;16.084;2023-10-13T09:34:49;19.00;99.90
1594;DHT22;790;47.000;16.084;2023-10-13T09:37:17;19.10;99.90
1594;DHT22;790;47.000;16.084;2023-10-13T09:39:49;19.20;99.90
1594;DHT22;790;47.000;16.084;2023-10-13T09:42:20;19.30;99.90
1594;DHT22;790;47.000;16.084;2023-10-13T09:44:49;19.40;99.90
1594;DHT22;790;47.000;16.084;2023-10-13T09:47:22;19.60;99.90
1594;DHT22;790;47.000;16.084;2023-10-13T09:50:02;19.80;99.90
1594;DHT22;790;47.000;16.084;2023-10-13T09:52:31;19.90;99.90
1594;DHT22;790;47.000;16.084;2023-10-13T09:55:21;20.00;99.90
1594;DHT22;790;47.000;16.084;2023-10-13T09:57:56;20.20;99.90
1594;DHT22;790;47.000;16.084;2023-10-13T10:00:29;20.30;99.90
1594;DHT22;790;47.000;16.084;2023-10-13T10:03:14;20.40;99.90
1594;DHT22;790;47.000;16.084;2023-10-13T10:05:59;20.50;99.90
1594;DHT22;790;47.000;16.084;2023-10-13T10:08:41;20.60;99.90
1594;DHT22;790;47.000;16.084;2023-10-13T10:11:59;20.70;99.90
1594;DHT22;790;47.000;16.084;2023-10-13T10:14:47;20.70;99.90
1594;DHT22;790;47.000;16.084;2023-10-13T10:17:15;20.80;99.90
1594;DHT22;790;47.000;16.084;2023-10-13T10:19:48;20.80;99.90
1594;DHT22;790;47.000;16.084;2023-10-13T10:22:25;20.90;99.90
1594;DHT22;790;47.000;16.084;2023-10-13T10:24:57;21.00;99.90
1594;DHT22;790;47.000;16.084;2023-10-13T10:27:25;21.10;99.90
1594;DHT22;790;47.000;16.084;2023-10-13T10:29:57;21.10;99.90
1594;DHT22;790;47.000;16.084;2023-10-13T10:32:34;21.10;99.90
1594;DHT22;790;47.000;16.084;2023-10-13T10:35:06;21.10;99.90
1594;DHT22;790;47.000;16.084;2023-10-13T10:37:40;21.20;99.90
1594;DHT22;790;47.000;16.084;2023-10-13T10:40:13;21.30;99.90
1594;DHT22;790;47.000;16.084;2023-10-13T10:42:59;21.40;99.90
1594;DHT22;790;47.000;16.084;2023-10-13T10:45:28;21.50;99.90
1594;DHT22;790;47.000;16.084;2023-10-13T10:48:00;21.60;99.90
1594;DHT22;790;47.000;16.084;2023-10-13T10:50:44;21.60;99.90
1594;DHT22;790;47.000;16.084;2023-10-13T10:53:19;21.70;99.90
1594;DHT22;790;47.000;16.084;2023-10-13T10:55:48;21.80;99.90
1594;DHT22;790;47.000;16.084;2023-10-13T10:58:15;21.80;99.90
1594;DHT22;790;47.000;16.084;2023-10-13T11:01:05;22.00;99.90
1594;DHT22;790;47.000;16.084;2023-10-13T11:03:36;22.00;99.90
1594;DHT22;790;47.000;16.084;2023-10-13T11:06:12;22.00;99.90
1594;DHT22;790;47.000;16.084;2023-10-13T11:08:43;22.20;99.90
1594;DHT22;790;47.000;16.084;2023-10-13T11:11:28;22.20;99.90
1594;DHT22;790;47.000;16.084;2023-10-13T11:13:56;22.30;99.90
1594;DHT22;790;47.000;16.084;2023-10-13T11:16:47;22.40;99.90
1594;DHT22;790;47.000;16.084;2023-10-13T11:19:17;22.60;99.90
1594;DHT22;790;47.000;16.084;2023-10-13T11:21:52;22.70;99.90
1594;DHT22;790;47.000;16.084;2023-10-13T11:24:20;22.80;99.90
1594;DHT22;790;47.000;16.084;2023-10-13T11:26:48;22.80;99.90
1594;DHT22;790;47.000;16.084;2023-10-13T11:29:31;22.90;99.90
1594;DHT22;790;47.000;16.084;2023-10-13T11:32:01;22.90;99.90
1594;DHT22;790;47.000;16.084;2023-10-13T11:34:29;23.00;99.90
1594;DHT22;790;47.000;16.084;2023-10-13T11:37:05;23.10;99.90
1594;DHT22;790;47.000;16.084;2023-10-13T11:39:46;23.20;99.90
1594;DHT22;790;47.000;16.084;2023-10-13T11:42:13;23.20;99.90
1594;DHT22;790;47.000;16.084;2023-10-13T11:44:45;23.20;99.90
1594;DHT22;790;47.000;16.084;2023-10-13T11:47:21;23.30;99.90
1594;DHT22;790;47.000;16.084;2023-10-13T11:50:13;23.40;99.90
1594;DHT22;790;47.000;16.084;2023-10-13T11:52:52;23.40;99.90
1594;DHT22;790;47.000;16.084;2023-10-13T11:55:20;23.40;99.90
1594;DHT22;790;47.000;16.084;2023-10-13T11:57:48;23.50;99.90
1594;DHT22;790;47.000;16.084;2023-10-13T12:00:16;23.50;99.90
1594;DHT22;790;47.000;16.084;2023-10-13T12:02:54;23.50;99.90
1594;DHT22;790;47.000;16.084;2023-10-13T12:05:39;23.50;99.90
1594;DHT22;790;47.000;16.084;2023-10-13T12:08:31;23.60;99.90
1594;DHT22;790;47.000;16.084;2023-10-13T12:11:05;23.60;99.90
1594;DHT22;790;47.000;16.084;2023-10-13T12:13:46;23.60;99.90
1594;DHT22;790;47.000;16.084;2023-10-13T12:16:13;23.60;99.90
1594;DHT22;790;47.000;16.084;2023-10-13T12:18:46;23.70;99.90
1594;DHT22;790;47.000;16.084;2023-10-13T12:21:19;23.70;99.90
1594;DHT22;790;47.000;16.084;2023-10-13T12:23:49;23.70;99.90
1594;DHT22;790;47.000;16.084;2023-10-13T12:26:20;23.70;99.90
1594;DHT22;790;47.000;16.084;2023-10-13T12:28:59;23.70;99.90
1594;DHT22;790;47.000;16.084;2023-10-13T12:31:32;23.90;99.90
1594;DHT22;790;47.000;16.084;2023-10-13T12:34:06;23.90;99.90
1594;DHT22;790;47.000;16.084;2023-10-13T12:36:41;23.80;99.90
1594;DHT22;790;47.000;16.084;2023-10-13T12:39:20;23.90;99.90
1594;DHT22;790;47.000;16.084;2023-10-13T12:42:04;23.90;99.90
1594;DHT22;790;47.000;16.084;2023-10-13T12:44:50;23.80;99.90
1594;DHT22;790;47.000;16.084;2023-10-13T12:47:34;23.80;99.90
1594;DHT22;790;47.000;16.084;2023-10-13T12:50:20;23.70;99.90
1594;DHT22;790;47.000;16.084;2023-10-13T12:53:00;23.60;99.90
1594;DHT22;790;47.000;16.084;2023-10-13T12:55:28;23.60;99.90
1594;DHT22;790;47.000;16.084;2023-10-13T12:57:55;23.60;99.90
1594;DHT22;790;47.000;16.084;2023-10-13T13:00:22;23.50;99.90
1594;DHT22;790;47.000;16.084;2023-10-13T13:02:59;23.50;99.90
1594;DHT22;790;47.000;16.084;2023-10-13T13:05:27;23.50;99.90
1594;DHT22;790;47.000;16.084;2023-10-13T13:07:57;23.50;99.90
1594;DHT22;790;47.000;16.084;2023-10-13T13:10:24;23.50;99.90
1594;DHT22;790;47.000;16.084;2023-10-13T13:13:02;23.50;99.90
1594;DHT22;790;47.000;16.084;2023-10-13T13:15:30;23.60;99.90
1594;DHT22;790;47.000;16.084;2023-10-13T13:17:57;23.60;99.90
1594;DHT22;790;47.000;16.084;2023-10-13T13:20:24;23.50;99.90
1594;DHT22;790;47.000;16.084;2023-10-13T13:22:56;23.50;99.90
1594;DHT22;790;47.000;16.084;2023-10-13T13:25:28;23.40;99.90
1594;DHT22;790;47.000;16.084;2023-10-13T13:27:58;23.50;99.90
1594;DHT22;790;47.000;16.084;2023-10-13T13:30:31;23.50;99.90
1594;DHT22;790;47.000;16.084;2023-10-13T13:33:01;23.50;99.90
1594;DHT22;790;47.000;16.084;2023-10-13T13:35:38;23.40;99.90
1594;DHT22;790;47.000;16.084;2023-10-13T13:38:07;23.30;99.90
1594;DHT22;790;47.000;16.084;2023-10-13T13:40:47;23.30;99.90
1594;DHT22;790;47.000;16.084;2023-10-13T13:43:15;23.30;99.90
1594;DHT22;790;47.000;16.084;2023-10-13T13:45:58;23.20;99.90
1594;DHT22;790;47.000;16.084;2023-10-13T13:48:27;23.20;99.90
1594;DHT22;790;47.000;16.084;2023-10-13T13:50:54;23.10;99.90
1594;DHT22;790;47.000;16.084;2023-10-13T13:53:31;23.10;99.90
1594;DHT22;790;47.000;16.084;2023-10-13T13:56:01;23.10;99.90
1594;DHT22;790;47.000;16.084;2023-10-13T13:58:29;23.10;99.90
1594;DHT22;790;47.000;16.084;2023-10-13T14:01:00;23.10;99.90
1594;DHT22;790;47.000;16.084;2023-10-13T14:03:39;23.10;99.90
1594;DHT22;790;47.000;16.084;2023-10-13T14:06:11;23.00;99.90
1594;DHT22;790;47.000;16.084;2023-10-13T14:08:49;23.00;99.90
1594;DHT22;790;47.000;16.084;2023-10-13T14:11:21;22.90;99.90
1594;DHT22;790;47.000;16.084;2023-10-13T14:14:06;22.90;99.90
1594;DHT22;790;47.000;16.084;2023-10-13T14:16:39;22.80;99.90
1594;DHT22;790;47.000;16.084;2023-10-13T14:19:10;22.80;99.90
1594;DHT22;790;47.000;16.084;2023-10-13T14:21:38;22.70;99.90
1594;DHT22;790;47.000;16.084;2023-10-13T14:24:07;22.70;99.90
1594;DHT22;790;47.000;16.084;2023-10-13T14:26:40;22.70;99.90
1594;DHT22;790;47.000;16.084;2023-10-13T14:29:10;22.60;99.90
1594;DHT22;790;47.000;16.084;2023-10-13T14:31:40;22.40;99.90
1594;DHT22;790;47.000;16.084;2023-10-13T14:34:09;22.40;99.90
1594;DHT22;790;47.000;16.084;2023-10-13T14:36:36;22.30;99.90
1594;DHT22;790;47.000;16.084;2023-10-13T14:39:06;22.20;99.90
1594;DHT22;790;47.000;16.084;2023-10-13T14:41:35;22.10;99.90
1594;DHT22;790;47.000;16.084;2023-10-13T14:44:03;22.00;99.90
1594;DHT22;790;47.000;16.084;2023-10-13T14:46:32;21.90;99.90
1594;DHT22;790;47.000;16.084;2023-10-13T14:49:01;21.70;99.90
1594;DHT22;790;47.000;16.084;2023-10-13T14:51:29;21.70;99.90
1594;DHT22;790;47.000;16.084;2023-10-13T14:53:58;21.60;99.90
1594;DHT22;790;47.000;16.084;2023-10-13T14:56:28;21.50;99.90
1594;DHT22;790;47.000;16.084;2023-10-13T14:58:55;21.50;99.90
1594;DHT22;790;47.000;16.084;2023-10-13T15:01:23;21.40;99.90
1594;DHT22;790;47.000;16.084;2023-10-13T15:03:54;21.30;99.90
1594;DHT22;790;47.000;16.084;2023-10-13T15:06:22;21.30;99.90
1594;DHT22;790;47.000;16.084;2023-10-13T15:08:52;21.10;99.90
1594;DHT22;790;47.000;16.084;2023-10-13T15:11:20;21.00;99.90
1594;DHT22;790;47.000;16.084;2023-10-13T15:13:54;20.80;99.90
1594;DHT22;790;47.000;16.084;2023-10-13T15:16:24;20.70;99.90
1594;DHT22;790;47.000;16.084;2023-10-13T15:18:52;20.70;99.90
1594;DHT22;790;47.000;16.084;2023-10-13T15:21:20;20.60;99.90
1594;DHT22;790;47.000;16.084;2023-10-13T15:23:48;20.50;99.90
1594;DHT22;790;47.000;16.084;2023-10-13T15:26:18;20.50;99.90
1594;DHT22;790;47.000;16.084;2023-10-13T15:28:47;20.40;99.90
1594;DHT22;790;47.000;16.084;2023-10-13T15:31:17;20.30;99.90
1594;DHT22;790;47.000;16.084;2023-10-13T15:34:04;20.30;99.90
1594;DHT22;790;47.000;16.084;2023-10-13T15:36:33;20.30;99.90
1594;DHT22;790;47.000;16.084;2023-10-13T15:39:00;20.10;99.90
1594;DHT22;790;47.000;16.084;2023-10-13T15:41:29;20.00;99.90
1594;DHT22;790;47.000;16.084;2023-10-13T15:43:56;20.00;99.90
1594;DHT22;790;47.000;16.084;2023-10-13T15:46:24;19.90;99.90
1594;DHT22;790;47.000;16.084;2023-10-13T15:48:53;19.80;99.90
1594;DHT22;790;47.000;16.084;2023-10-13T15:51:21;19.70;99.90
1594;DHT22;790;47.000;16.084;2023-10-13T15:53:49;19.60;99.90
1594;DHT22;790;47.000;16.084;2023-10-13T15:56:18;19.60;99.90
1594;DHT22;790;47.000;16.084;2023-10-13T15:58:47;19.50;99.90
1594;DHT22;790;47.000;16.084;2023-10-13T16:01:15;19.40;99.90
1594;DHT22;790;47.000;16.084;2023-10-13T16:03:44;19.40;99.90
1594;DHT22;790;47.000;16.084;2023-10-13T16:06:23;19.30;99.90
1594;DHT22;790;47.000;16.084;2023-10-13T16:08:56;19.20;99.90
1594;DHT22;790;47.000;16.084;2023-10-13T16:11:24;19.10;99.90
1594;DHT22;790;47.000;16.084;2023-10-13T16:13:53;19.10;99.90
1594;DHT22;790;47.000;16.084;2023-10-13T16:16:21;18.90;99.90
1594;DHT22;790;47.000;16.084;2023-10-13T16:18:51;18.80;99.90
1594;DHT22;790;47.000;16.084;2023-10-13T16:21:20;18.80;99.90
1594;DHT22;790;47.000;16.084;2023-10-13T16:23:49;18.80;99.90
1594;DHT22;790;47.000;16.084;2023-10-13T16:26:19;18.70;99.90
1594;DHT22;790;47.000;16.084;2023-10-13T16:28:50;18.70;99.90
1594;DHT22;790;47.000;16.084;2023-10-13T16:31:20;18.60;99.90
1594;DHT22;790;47.000;16.084;2023-10-13T16:33:50;18.60;99.90
1594;DHT22;790;47.000;16.084;2023-10-13T16:36:20;18.50;99.90
1594;DHT22;790;47.000;16.084;2023-10-13T16:38:49;18.40;99.90
1594;DHT22;790;47.000;16.084;2023-10-13T16:41:17;18.30;99.90
1594;DHT22;790;47.000;16.084;2023-10-13T16:43:44;18.30;99.90
1594;DHT22;790;47.000;16.084;2023-10-13T16:46:12;18.20;99.90
1594;DHT22;790;47.000;16.084;2023-10-13T16:48:41;18.20;99.90
1594;DHT22;790;47.000;16.084;2023-10-13T16:51:14;18.10;99.90